sensor_id;sensor_type;location;lat;lon;timestamp;temperature;humidity
74513;DHT22;62992;52.052;8.550;2023-03-24T00:01:42;11.50;99.90
74513;DHT22;62992;52.052;8.550;2023-03-24T00:04:26;11.50;99.90
74513;DHT22;62992;52.052;8.550;2023-03-24T00:07:10;11.50;99.90
74513;DHT22;62992;52.052;8.550;2023-03-24T00:09:58;11.50;99.90
74513;DHT22;62992;52.052;8.550;2023-03-24T00:12:45;11.40;99.90
74513;DHT22;62992;52.052;8.550;2023-03-24T00:15:30;11.40;99.90
74513;DHT22;62992;52.052;8.550;2023-03-24T00:18:14;11.40;99.90
74513;DHT22;62992;52.052;8.550;2023-03-24T00:20:58;11.40;99.90
74513;DHT22;62992;52.052;8.550;2023-03-24T00:23:43;11.40;99.90
74513;DHT22;62992;52.052;8.550;2023-03-24T00:26:27;11.40;99.90
74513;DHT22;62992;52.052;8.550;2023-03-24T00:29:13;11.40;99.90
74513;DHT22;62992;52.052;8.550;2023-03-24T00:31:57;11.40;99.90
74513;DHT22;62992;52.052;8.550;2023-03-24T00:34:42;11.40;99.90
74513;DHT22;62992;52.052;8.550;2023-03-24T00:37:26;11.30;99.90
74513;DHT22;62992;52.052;8.550;2023-03-24T00:40:16;11.30;99.90
74513;DHT22;62992;52.052;8.550;2023-03-24T00:43:00;11.30;99.90
74513;DHT22;62992;52.052;8.550;2023-03-24T00:45:45;11.30;99.90
74513;DHT22;62992;52.052;8.550;2023-03-24T00:48:29;11.40;99.90
74513;DHT22;62992;52.052;8.550;2023-03-24T00:51:13;11.30;99.90
74513;DHT22;62992;52.052;8.550;2023-03-24T00:53:58;11.30;99.90
74513;DHT22;62992;52.052;8.550;2023-03-24T00:56:42;11.20;99.90
74513;DHT22;62992;52.052;8.550;2023-03-24T00:59:26;11.30;99.90
74513;DHT22;62992;52.052;8.550;2023-03-24T01:02:12;11.20;99.90
74513;DHT22;62992;52.052;8.550;2023-03-24T01:05:00;11.20;99.90
74513;DHT22;62992;52.052;8.550;2023-03-24T01:07:45;11.30;99.90
74513;DHT22;62992;52.052;8.550;2023-03-24T01:10:37;11.30;99.90
74513;DHT22;62992;52.052;8.550;2023-03-24T01:13:33;11.20;99.90
74513;DHT22;62992;52.052;8.550;2023-03-24T01:16:17;11.30;99.90
74513;DHT22;62992;52.052;8.550;2023-03-24T01:19:01;11.30;99.90
74513;DHT22;62992;52.052;8.550;2023-03-24T01:21:46;11.30;99.90
74513;DHT22;62992;52.052;8.550;2023-03-24T01:24:33;11.30;99.90
74513;DHT22;62992;52.052;8.550;2023-03-24T01:27:18;11.30;99.90
74513;DHT22;62992;52.052;8.550;2023-03-24T01:30:04;11.30;99.90
74513;DHT22;62992;52.052;8.550;2023-03-24T01:32:49;11.30;99.90
74513;DHT22;62992;52.052;8.550;2023-03-24T01:35:33;11.30;99.90
74513;DHT22;62992;52.052;8.550;2023-03-24T01:38:18;11.30;99.90
74513;DHT22;62992;52.052;8.550;2023-03-24T01:41:03;11.30;99.90
74513;DHT22;62992;52.052;8.550;2023-03-24T01:43:47;11.30;99.90
74513;DHT22;62992;52.052;8.550;2023-03-24T01:46:31;11.40;99.90
74513;DHT22;62992;52.052;8.550;2023-03-24T01:49:17;11.40;99.90
74513;DHT22;62992;52.052;8.550;2023-03-24T01:52:10;11.40;99.90
74513;DHT22;62992;52.052;8.550;2023-03-24T01:55:04;11.40;99.90
74513;DHT22;62992;52.052;8.550;2023-03-24T01:57:54;11.40;99.90
74513;DHT22;62992;52.052;8.550;2023-03-24T02:00:39;11.50;99.90
74513;DHT22;62992;52.052;8.550;2023-03-24T02:03:25;11.50;99.90
74513;DHT22;62992;52.052;8.550;2023-03-24T02:06:10;11.50;99.90
74513;DHT22;62992;52.052;8.550;2023-03-24T02:08:57;11.50;99.90
74513;DHT22;62992;52.052;8.550;2023-03-24T02:11:41;11.50;99.90
74513;DHT22;62992;52.052;8.550;2023-03-24T02:14:26;11.50;99.90
74513;DHT22;62992;52.052;8.550;2023-03-24T02:17:31;11.60;99.90
74513;DHT22;62992;52.052;8.550;2023-03-24T02:27:36;11.50;99.90
74513;DHT22;62992;52.052;8.550;2023-03-24T02:30:15;11.50;99.90
74513;DHT22;62992;52.052;8.550;2023-03-24T02:39:44;11.60;99.90
74513;DHT22;62992;52.052;8.550;2023-03-24T02:42:47;11.50;99.90
74513;DHT22;62992;52.052;8.550;2023-03-24T02:48:37;11.50;99.90
74513;DHT22;62992;52.052;8.550;2023-03-24T02:51:27;11.50;99.90
74513;DHT22;62992;52.052;8.550;2023-03-24T02:54:40;11.60;99.90
74513;DHT22;62992;52.052;8.550;2023-03-24T02:57:40;11.60;99.90
74513;DHT22;62992;52.052;8.550;2023-03-24T03:03:31;11.70;99.90
74513;DHT22;62992;52.052;8.550;2023-03-24T03:06:27;11.70;99.90
74513;DHT22;62992;52.052;8.550;2023-03-24T03:09:15;11.70;99.90
74513;DHT22;62992;52.052;8.550;2023-03-24T03:12:01;11.70;99.90
74513;DHT22;62992;52.052;8.550;2023-03-24T03:14:51;11.70;99.90
74513;DHT22;62992;52.052;8.550;2023-03-24T03:17:40;11.80;99.90
74513;DHT22;62992;52.052;8.550;2023-03-24T03:20:27;11.80;99.90
74513;DHT22;62992;52.052;8.550;2023-03-24T03:23:16;11.80;99.90
74513;DHT22;62992;52.052;8.550;2023-03-24T03:26:05;11.70;99.90
74513;DHT22;62992;52.052;8.550;2023-03-24T03:28:57;11.70;99.90
74513;DHT22;62992;52.052;8.550;2023-03-24T03:31:50;11.70;99.90
74513;DHT22;62992;52.052;8.550;2023-03-24T03:34:47;11.60;99.90
74513;DHT22;62992;52.052;8.550;2023-03-24T03:37:44;11.60;99.90
74513;DHT22;62992;52.052;8.550;2023-03-24T03:40:41;11.50;99.90
74513;DHT22;62992;52.052;8.550;2023-03-24T03:43:26;11.50;99.90
74513;DHT22;62992;52.052;8.550;2023-03-24T03:46:11;11.50;99.90
74513;DHT22;62992;52.052;8.550;2023-03-24T03:48:56;11.50;99.90
74513;DHT22;62992;52.052;8.550;2023-03-24T03:51:41;11.50;99.90
74513;DHT22;62992;52.052;8.550;2023-03-24T03:54:27;11.60;99.90
74513;DHT22;62992;52.052;8.550;2023-03-24T03:57:13;11.60;99.90
74513;DHT22;62992;52.052;8.550;2023-03-24T04:00:00;11.60;99.90
74513;DHT22;62992;52.052;8.550;2023-03-24T04:27:11;11.80;99.90
74513;DHT22;62992;52.052;8.550;2023-03-24T04:33:22;11.90;99.90
74513;DHT22;62992;52.052;8.550;2023-03-24T04:36:25;12.00;99.90
74513;DHT22;62992;52.052;8.550;2023-03-24T04:39:13;11.90;99.90
74513;DHT22;62992;52.052;8.550;2023-03-24T04:42:01;11.90;99.90
74513;DHT22;62992;52.052;8.550;2023-03-24T04:44:47;11.90;99.90
74513;DHT22;62992;52.052;8.550;2023-03-24T04:47:40;11.90;99.90
74513;DHT22;62992;52.052;8.550;2023-03-24T04:50:31;12.00;99.90
74513;DHT22;62992;52.052;8.550;2023-03-24T04:53:17;12.00;99.90
74513;DHT22;62992;52.052;8.550;2023-03-24T04:59:08;12.10;99.90
74513;DHT22;62992;52.052;8.550;2023-03-24T05:01:52;12.00;99.90
74513;DHT22;62992;52.052;8.550;2023-03-24T05:04:36;12.10;99.90
74513;DHT22;62992;52.052;8.550;2023-03-24T05:07:20;12.10;99.90
74513;DHT22;62992;52.052;8.550;2023-03-24T05:10:05;12.20;99.90
74513;DHT22;62992;52.052;8.550;2023-03-24T05:12:49;12.10;99.90
74513;DHT22;62992;52.052;8.550;2023-03-24T05:15:33;12.10;99.90
74513;DHT22;62992;52.052;8.550;2023-03-24T05:18:18;12.10;99.90
74513;DHT22;62992;52.052;8.550;2023-03-24T05:21:02;12.10;99.90
74513;DHT22;62992;52.052;8.550;2023-03-24T05:23:46;12.10;99.90
74513;DHT22;62992;52.052;8.550;2023-03-24T05:26:30;12.10;99.90
74513;DHT22;62992;52.052;8.550;2023-03-24T05:29:14;12.20;99.90
74513;DHT22;62992;52.052;8.550;2023-03-24T05:31:58;12.30;99.90
74513;DHT22;62992;52.052;8.550;2023-03-24T05:34:42;12.30;99.90
74513;DHT22;62992;52.052;8.550;2023-03-24T05:37:26;12.20;99.90
74513;DHT22;62992;52.052;8.550;2023-03-24T05:40:10;12.30;99.90
74513;DHT22;62992;52.052;8.550;2023-03-24T05:42:54;12.30;99.90
74513;DHT22;62992;52.052;8.550;2023-03-24T05:45:38;12.30;99.90
74513;DHT22;62992;52.052;8.550;2023-03-24T05:48:23;12.30;99.90
74513;DHT22;62992;52.052;8.550;2023-03-24T05:51:07;12.40;99.90
74513;DHT22;62992;52.052;8.550;2023-03-24T05:53:52;12.30;99.90
74513;DHT22;62992;52.052;8.550;2023-03-24T05:56:36;12.20;99.90
74513;DHT22;62992;52.052;8.550;2023-03-24T05:59:20;12.20;99.90
74513;DHT22;62992;52.052;8.550;2023-03-24T06:02:05;12.10;99.90
74513;DHT22;62992;52.052;8.550;2023-03-24T06:04:51;12.00;99.90
74513;DHT22;62992;52.052;8.550;2023-03-24T06:07:39;12.00;99.90
74513;DHT22;62992;52.052;8.550;2023-03-24T06:10:25;12.00;99.90
74513;DHT22;62992;52.052;8.550;2023-03-24T06:13:11;12.10;99.90
74513;DHT22;62992;52.052;8.550;2023-03-24T06:15:55;12.10;99.90
74513;DHT22;62992;52.052;8.550;2023-03-24T06:18:41;12.00;99.90
74513;DHT22;62992;52.052;8.550;2023-03-24T06:21:25;12.10;99.90
74513;DHT22;62992;52.052;8.550;2023-03-24T06:24:13;12.00;99.90
74513;DHT22;62992;52.052;8.550;2023-03-24T06:26:57;12.10;99.90
74513;DHT22;62992;52.052;8.550;2023-03-24T06:29:44;12.10;99.90
74513;DHT22;62992;52.052;8.550;2023-03-24T06:32:28;12.10;99.90
74513;DHT22;62992;52.052;8.550;2023-03-24T06:35:14;12.10;99.90
74513;DHT22;62992;52.052;8.550;2023-03-24T06:37:59;11.90;99.90
74513;DHT22;62992;52.052;8.550;2023-03-24T06:40:43;12.00;99.90
74513;DHT22;62992;52.052;8.550;2023-03-24T06:43:27;11.90;99.90
74513;DHT22;62992;52.052;8.550;2023-03-24T06:46:11;11.70;99.90
74513;DHT22;62992;52.052;8.550;2023-03-24T06:48:56;11.70;99.90
74513;DHT22;62992;52.052;8.550;2023-03-24T06:51:40;11.70;99.90
74513;DHT22;62992;52.052;8.550;2023-03-24T06:54:24;11.80;99.90
74513;DHT22;62992;52.052;8.550;2023-03-24T06:57:08;11.90;99.90
74513;DHT22;62992;52.052;8.550;2023-03-24T06:59:53;11.90;99.90
74513;DHT22;62992;52.052;8.550;2023-03-24T07:02:37;11.90;99.90
74513;DHT22;62992;52.052;8.550;2023-03-24T07:05:21;11.70;99.90
74513;DHT22;62992;52.052;8.550;2023-03-24T07:08:06;11.80;99.90
74513;DHT22;62992;52.052;8.550;2023-03-24T07:10:50;11.70;99.90
74513;DHT22;62992;52.052;8.550;2023-03-24T07:13:34;11.70;99.90
74513;DHT22;62992;52.052;8.550;2023-03-24T07:16:18;13.40;99.90
74513;DHT22;62992;52.052;8.550;2023-03-24T07:19:02;12.40;99.90
74513;DHT22;62992;52.052;8.550;2023-03-24T07:21:47;11.80;99.90
74513;DHT22;62992;52.052;8.550;2023-03-24T07:24:33;12.20;99.90
74513;DHT22;62992;52.052;8.550;2023-03-24T07:27:18;12.20;99.90
74513;DHT22;62992;52.052;8.550;2023-03-24T07:30:03;12.30;99.90
74513;DHT22;62992;52.052;8.550;2023-03-24T07:32:47;14.70;99.90
74513;DHT22;62992;52.052;8.550;2023-03-24T07:35:32;18.70;99.90
74513;DHT22;62992;52.052;8.550;2023-03-24T07:38:16;20.80;99.90
74513;DHT22;62992;52.052;8.550;2023-03-24T07:41:00;22.10;99.20
74513;DHT22;62992;52.052;8.550;2023-03-24T07:43:45;22.50;97.70
74513;DHT22;62992;52.052;8.550;2023-03-24T07:46:29;19.60;99.30
74513;DHT22;62992;52.052;8.550;2023-03-24T07:49:13;20.10;99.60
74513;DHT22;62992;52.052;8.550;2023-03-24T07:51:58;17.40;99.90
74513;DHT22;62992;52.052;8.550;2023-03-24T07:54:42;17.80;99.90
74513;DHT22;62992;52.052;8.550;2023-03-24T07:57:26;16.00;99.90
74513;DHT22;62992;52.052;8.550;2023-03-24T08:00:10;19.30;99.90
74513;DHT22;62992;52.052;8.550;2023-03-24T08:03:13;21.20;98.00
74513;DHT22;62992;52.052;8.550;2023-03-24T08:05:58;22.80;95.60
74513;DHT22;62992;52.052;8.550;2023-03-24T08:08:43;22.80;95.20
74513;DHT22;62992;52.052;8.550;2023-03-24T08:11:27;21.50;95.70
74513;DHT22;62992;52.052;8.550;2023-03-24T08:14:11;23.00;95.20
74513;DHT22;62992;52.052;8.550;2023-03-24T08:16:55;19.60;97.20
74513;DHT22;62992;52.052;8.550;2023-03-24T08:19:39;16.90;99.90
74513;DHT22;62992;52.052;8.550;2023-03-24T08:22:23;19.00;99.90
74513;DHT22;62992;52.052;8.550;2023-03-24T08:25:08;20.80;97.80
74513;DHT22;62992;52.052;8.550;2023-03-24T08:27:53;21.80;96.20
74513;DHT22;62992;52.052;8.550;2023-03-24T08:30:38;20.00;97.60
74513;DHT22;62992;52.052;8.550;2023-03-24T08:33:26;18.20;99.90
74513;DHT22;62992;52.052;8.550;2023-03-24T08:36:10;17.50;99.90
74513;DHT22;62992;52.052;8.550;2023-03-24T08:38:55;18.70;99.90
74513;DHT22;62992;52.052;8.550;2023-03-24T08:41:39;18.30;99.90
74513;DHT22;62992;52.052;8.550;2023-03-24T08:44:24;18.80;99.90
74513;DHT22;62992;52.052;8.550;2023-03-24T08:47:08;17.30;99.90
74513;DHT22;62992;52.052;8.550;2023-03-24T08:49:55;17.10;99.90
74513;DHT22;62992;52.052;8.550;2023-03-24T08:52:40;17.40;99.90
74513;DHT22;62992;52.052;8.550;2023-03-24T08:55:25;18.20;99.90
74513;DHT22;62992;52.052;8.550;2023-03-24T08:58:15;16.80;99.90
74513;DHT22;62992;52.052;8.550;2023-03-24T09:01:00;16.40;99.90
74513;DHT22;62992;52.052;8.550;2023-03-24T09:03:45;16.50;99.90
74513;DHT22;62992;52.052;8.550;2023-03-24T09:06:30;17.20;99.90
74513;DHT22;62992;52.052;8.550;2023-03-24T09:09:15;15.80;99.90
74513;DHT22;62992;52.052;8.550;2023-03-24T09:11:59;17.10;99.90
74513;DHT22;62992;52.052;8.550;2023-03-24T09:14:47;15.90;99.90
74513;DHT22;62992;52.052;8.550;2023-03-24T09:17:33;14.90;99.90
74513;DHT22;62992;52.052;8.550;2023-03-24T09:20:17;16.10;99.90
74513;DHT22;62992;52.052;8.550;2023-03-24T09:23:03;15.60;99.90
74513;DHT22;62992;52.052;8.550;2023-03-24T09:25:50;15.40;99.90
74513;DHT22;62992;52.052;8.550;2023-03-24T09:28:35;17.00;99.90
74513;DHT22;62992;52.052;8.550;2023-03-24T09:31:19;16.10;99.90
74513;DHT22;62992;52.052;8.550;2023-03-24T09:34:03;15.30;99.90
74513;DHT22;62992;52.052;8.550;2023-03-24T09:36:48;15.30;99.90
74513;DHT22;62992;52.052;8.550;2023-03-24T09:39:35;16.20;99.90
74513;DHT22;62992;52.052;8.550;2023-03-24T09:42:22;15.20;99.90
74513;DHT22;62992;52.052;8.550;2023-03-24T09:45:16;16.40;99.90
74513;DHT22;62992;52.052;8.550;2023-03-24T09:48:16;18.40;99.90
74513;DHT22;62992;52.052;8.550;2023-03-24T09:56:53;15.90;99.90
74513;DHT22;62992;52.052;8.550;2023-03-24T09:59:39;16.60;99.90
74513;DHT22;62992;52.052;8.550;2023-03-24T10:02:27;16.90;99.90
74513;DHT22;62992;52.052;8.550;2023-03-24T10:05:21;15.80;99.90
74513;DHT22;62992;52.052;8.550;2023-03-24T10:16:53;16.50;99.90
74513;DHT22;62992;52.052;8.550;2023-03-24T10:19:57;15.80;99.90
74513;DHT22;62992;52.052;8.550;2023-03-24T10:22:52;16.40;99.90
74513;DHT22;62992;52.052;8.550;2023-03-24T10:29:02;15.20;99.90
74513;DHT22;62992;52.052;8.550;2023-03-24T10:31:58;14.70;99.90
74513;DHT22;62992;52.052;8.550;2023-03-24T10:34:46;14.50;99.90
74513;DHT22;62992;52.052;8.550;2023-03-24T10:37:31;14.10;99.90
74513;DHT22;62992;52.052;8.550;2023-03-24T10:40:23;14.20;99.90
74513;DHT22;62992;52.052;8.550;2023-03-24T10:43:08;13.90;99.90
74513;DHT22;62992;52.052;8.550;2023-03-24T10:45:55;13.80;99.90
74513;DHT22;62992;52.052;8.550;2023-03-24T10:51:29;14.00;99.90
74513;DHT22;62992;52.052;8.550;2023-03-24T10:54:25;14.70;99.90
74513;DHT22;62992;52.052;8.550;2023-03-24T10:57:16;15.10;99.90
74513;DHT22;62992;52.052;8.550;2023-03-24T11:00:06;15.00;99.90
74513;DHT22;62992;52.052;8.550;2023-03-24T11:03:07;14.70;99.90
74513;DHT22;62992;52.052;8.550;2023-03-24T11:06:02;15.10;99.90
74513;DHT22;62992;52.052;8.550;2023-03-24T11:09:09;15.00;99.90
74513;DHT22;62992;52.052;8.550;2023-03-24T11:12:02;15.60;99.90
74513;DHT22;62992;52.052;8.550;2023-03-24T11:14:47;15.20;99.90
74513;DHT22;62992;52.052;8.550;2023-03-24T11:17:31;16.20;99.90
74513;DHT22;62992;52.052;8.550;2023-03-24T11:20:24;16.70;99.90
74513;DHT22;62992;52.052;8.550;2023-03-24T11:23:19;16.90;99.90
74513;DHT22;62992;52.052;8.550;2023-03-24T11:29:18;16.80;99.90
74513;DHT22;62992;52.052;8.550;2023-03-24T11:32:13;15.70;99.90
74513;DHT22;62992;52.052;8.550;2023-03-24T11:35:06;15.30;99.90
74513;DHT22;62992;52.052;8.550;2023-03-24T11:37:52;14.80;99.90
74513;DHT22;62992;52.052;8.550;2023-03-24T11:40:36;14.50;99.90
74513;DHT22;62992;52.052;8.550;2023-03-24T11:43:20;14.40;99.90
74513;DHT22;62992;52.052;8.550;2023-03-24T11:46:17;14.40;99.90
74513;DHT22;62992;52.052;8.550;2023-03-24T11:49:04;14.40;99.90
74513;DHT22;62992;52.052;8.550;2023-03-24T11:51:52;14.30;99.90
74513;DHT22;62992;52.052;8.550;2023-03-24T11:54:37;15.20;99.90
74513;DHT22;62992;52.052;8.550;2023-03-24T11:58:01;15.50;99.90
74513;DHT22;62992;52.052;8.550;2023-03-24T12:00:59;16.80;99.90
74513;DHT22;62992;52.052;8.550;2023-03-24T12:31:04;16.80;99.90
74513;DHT22;62992;52.052;8.550;2023-03-24T12:34:08;16.90;99.90
74513;DHT22;62992;52.052;8.550;2023-03-24T12:36:58;16.70;99.90
74513;DHT22;62992;52.052;8.550;2023-03-24T12:42:58;15.40;99.90
74513;DHT22;62992;52.052;8.550;2023-03-24T12:45:53;15.80;99.90
74513;DHT22;62992;52.052;8.550;2023-03-24T12:52:04;15.90;99.90
74513;DHT22;62992;52.052;8.550;2023-03-24T12:58:05;15.40;99.90
74513;DHT22;62992;52.052;8.550;2023-03-24T13:01:04;15.20;99.90
74513;DHT22;62992;52.052;8.550;2023-03-24T13:09:48;15.10;99.90
74513;DHT22;62992;52.052;8.550;2023-03-24T13:12:58;15.00;99.90
74513;DHT22;62992;52.052;8.550;2023-03-24T13:15:55;15.00;99.90
74513;DHT22;62992;52.052;8.550;2023-03-24T13:18:43;15.10;99.90
74513;DHT22;62992;52.052;8.550;2023-03-24T13:21:28;15.30;99.90
74513;DHT22;62992;52.052;8.550;2023-03-24T13:24:16;15.50;99.90
74513;DHT22;62992;52.052;8.550;2023-03-24T13:27:14;15.40;99.90
74513;DHT22;62992;52.052;8.550;2023-03-24T13:33:14;15.50;99.90
74513;DHT22;62992;52.052;8.550;2023-03-24T13:38:56;15.20;99.90
74513;DHT22;62992;52.052;8.550;2023-03-24T13:41:49;15.20;99.90
74513;DHT22;62992;52.052;8.550;2023-03-24T13:44:40;14.90;99.90
74513;DHT22;62992;52.052;8.550;2023-03-24T13:47:25;14.90;99.90
74513;DHT22;62992;52.052;8.550;2023-03-24T13:50:12;14.80;99.90
74513;DHT22;62992;52.052;8.550;2023-03-24T13:53:03;14.90;99.90
74513;DHT22;62992;52.052;8.550;2023-03-24T13:55:50;15.40;99.90
74513;DHT22;62992;52.052;8.550;2023-03-24T13:58:48;15.40;99.90
74513;DHT22;62992;52.052;8.550;2023-03-24T14:01:42;15.00;99.90
74513;DHT22;62992;52.052;8.550;2023-03-24T14:10:46;15.10;99.90
74513;DHT22;62992;52.052;8.550;2023-03-24T14:13:45;14.90;99.90
74513;DHT22;62992;52.052;8.550;2023-03-24T14:16:35;14.80;99.90
74513;DHT22;62992;52.052;8.550;2023-03-24T14:28:16;15.10;99.90
74513;DHT22;62992;52.052;8.550;2023-03-24T14:31:09;14.90;99.90
74513;DHT22;62992;52.052;8.550;2023-03-24T14:36:45;14.70;99.90
74513;DHT22;62992;52.052;8.550;2023-03-24T14:39:44;14.60;99.90
74513;DHT22;62992;52.052;8.550;2023-03-24T14:54:40;14.60;99.90
74513;DHT22;62992;52.052;8.550;2023-03-24T14:57:34;14.50;99.90
74513;DHT22;62992;52.052;8.550;2023-03-24T15:00:37;14.50;99.90
74513;DHT22;62992;52.052;8.550;2023-03-24T15:06:21;14.40;99.90
74513;DHT22;62992;52.052;8.550;2023-03-24T15:09:08;14.30;99.90
74513;DHT22;62992;52.052;8.550;2023-03-24T15:11:55;14.20;99.90
74513;DHT22;62992;52.052;8.550;2023-03-24T15:14:42;14.10;99.90
74513;DHT22;62992;52.052;8.550;2023-03-24T15:17:27;14.10;99.90
74513;DHT22;62992;52.052;8.550;2023-03-24T15:20:23;14.00;99.90
74513;DHT22;62992;52.052;8.550;2023-03-24T15:23:19;13.60;99.90
74513;DHT22;62992;52.052;8.550;2023-03-24T15:26:14;12.00;99.90
74513;DHT22;62992;52.052;8.550;2023-03-24T15:29:05;11.30;99.90
74513;DHT22;62992;52.052;8.550;2023-03-24T15:31:49;11.20;99.90
74513;DHT22;62992;52.052;8.550;2023-03-24T15:34:39;10.90;99.90
74513;DHT22;62992;52.052;8.550;2023-03-24T15:37:24;10.90;99.90
74513;DHT22;62992;52.052;8.550;2023-03-24T15:43:18;11.10;99.90
74513;DHT22;62992;52.052;8.550;2023-03-24T15:46:03;11.20;99.90
74513;DHT22;62992;52.052;8.550;2023-03-24T15:48:49;11.10;99.90
74513;DHT22;62992;52.052;8.550;2023-03-24T15:55:29;10.70;99.90
74513;DHT22;62992;52.052;8.550;2023-03-24T15:58:21;10.80;99.90
74513;DHT22;62992;52.052;8.550;2023-03-24T16:01:09;10.80;99.90
74513;DHT22;62992;52.052;8.550;2023-03-24T16:03:59;10.80;99.90
74513;DHT22;62992;52.052;8.550;2023-03-24T16:06:48;10.70;99.90
74513;DHT22;62992;52.052;8.550;2023-03-24T16:09:35;10.80;99.90
74513;DHT22;62992;52.052;8.550;2023-03-24T16:12:20;10.80;99.90
74513;DHT22;62992;52.052;8.550;2023-03-24T16:15:05;10.80;99.90
74513;DHT22;62992;52.052;8.550;2023-03-24T16:17:50;10.90;99.90
74513;DHT22;62992;52.052;8.550;2023-03-24T16:20:34;10.90;99.90
74513;DHT22;62992;52.052;8.550;2023-03-24T16:23:18;10.90;99.90
74513;DHT22;62992;52.052;8.550;2023-03-24T16:26:03;10.80;99.90
74513;DHT22;62992;52.052;8.550;2023-03-24T16:28:48;10.70;99.90
74513;DHT22;62992;52.052;8.550;2023-03-24T16:31:32;10.60;99.90
74513;DHT22;62992;52.052;8.550;2023-03-24T16:34:19;10.60;99.90
74513;DHT22;62992;52.052;8.550;2023-03-24T16:37:03;10.60;99.90
74513;DHT22;62992;52.052;8.550;2023-03-24T16:39:48;10.60;99.90
74513;DHT22;62992;52.052;8.550;2023-03-24T16:42:32;10.70;99.90
74513;DHT22;62992;52.052;8.550;2023-03-24T16:45:16;10.60;99.90
74513;DHT22;62992;52.052;8.550;2023-03-24T16:48:00;10.60;99.90
74513;DHT22;62992;52.052;8.550;2023-03-24T16:50:48;10.50;99.90
74513;DHT22;62992;52.052;8.550;2023-03-24T16:53:34;10.50;99.90
74513;DHT22;62992;52.052;8.550;2023-03-24T16:56:20;10.60;99.90
74513;DHT22;62992;52.052;8.550;2023-03-24T16:59:05;10.50;99.90
74513;DHT22;62992;52.052;8.550;2023-03-24T17:01:51;10.50;99.90
74513;DHT22;62992;52.052;8.550;2023-03-24T17:04:35;10.40;99.90
74513;DHT22;62992;52.052;8.550;2023-03-24T17:07:19;10.40;99.90
74513;DHT22;62992;52.052;8.550;2023-03-24T17:10:04;10.40;99.90
74513;DHT22;62992;52.052;8.550;2023-03-24T17:12:49;10.30;99.90
74513;DHT22;62992;52.052;8.550;2023-03-24T17:15:34;10.30;99.90
74513;DHT22;62992;52.052;8.550;2023-03-24T17:18:18;10.30;99.90
74513;DHT22;62992;52.052;8.550;2023-03-24T17:21:02;10.30;99.90
74513;DHT22;62992;52.052;8.550;2023-03-24T17:23:47;10.30;99.90
74513;DHT22;62992;52.052;8.550;2023-03-24T17:26:41;10.30;99.90
74513;DHT22;62992;52.052;8.550;2023-03-24T17:29:27;10.40;99.90
74513;DHT22;62992;52.052;8.550;2023-03-24T17:32:11;10.40;99.90
74513;DHT22;62992;52.052;8.550;2023-03-24T17:34:55;10.50;99.90
74513;DHT22;62992;52.052;8.550;2023-03-24T17:37:39;10.40;99.90
74513;DHT22;62992;52.052;8.550;2023-03-24T17:40:24;10.30;99.90
74513;DHT22;62992;52.052;8.550;2023-03-24T17:43:08;10.40;99.90
74513;DHT22;62992;52.052;8.550;2023-03-24T17:45:58;10.30;99.90
74513;DHT22;62992;52.052;8.550;2023-03-24T17:48:43;10.30;99.90
74513;DHT22;62992;52.052;8.550;2023-03-24T17:51:27;10.30;99.90
74513;DHT22;62992;52.052;8.550;2023-03-24T17:54:11;10.30;99.90
74513;DHT22;62992;52.052;8.550;2023-03-24T17:56:56;10.20;99.90
74513;DHT22;62992;52.052;8.550;2023-03-24T17:59:40;10.20;99.90
74513;DHT22;62992;52.052;8.550;2023-03-24T18:02:25;10.20;99.90
74513;DHT22;62992;52.052;8.550;2023-03-24T18:05:10;10.20;99.90
74513;DHT22;62992;52.052;8.550;2023-03-24T18:07:54;10.20;99.90
74513;DHT22;62992;52.052;8.550;2023-03-24T18:10:38;10.20;99.90
74513;DHT22;62992;52.052;8.550;2023-03-24T18:13:23;10.20;99.90
74513;DHT22;62992;52.052;8.550;2023-03-24T18:16:09;10.20;99.90
74513;DHT22;62992;52.052;8.550;2023-03-24T18:18:53;10.10;99.90
74513;DHT22;62992;52.052;8.550;2023-03-24T18:21:37;10.10;99.90
74513;DHT22;62992;52.052;8.550;2023-03-24T18:24:23;10.10;99.90
74513;DHT22;62992;52.052;8.550;2023-03-24T18:27:08;10.10;99.90
74513;DHT22;62992;52.052;8.550;2023-03-24T18:29:52;10.10;99.90
74513;DHT22;62992;52.052;8.550;2023-03-24T18:32:37;10.10;99.90
74513;DHT22;62992;52.052;8.550;2023-03-24T18:35:22;10.00;99.90
74513;DHT22;62992;52.052;8.550;2023-03-24T18:38:07;10.00;99.90
74513;DHT22;62992;52.052;8.550;2023-03-24T18:41:03;10.00;99.90
74513;DHT22;62992;52.052;8.550;2023-03-24T18:43:48;10.00;99.90
74513;DHT22;62992;52.052;8.550;2023-03-24T18:46:32;10.10;99.90
74513;DHT22;62992;52.052;8.550;2023-03-24T18:49:16;10.10;99.90
74513;DHT22;62992;52.052;8.550;2023-03-24T18:52:00;10.10;99.90
74513;DHT22;62992;52.052;8.550;2023-03-24T18:54:45;10.10;99.90
74513;DHT22;62992;52.052;8.550;2023-03-24T18:57:29;10.10;99.90
74513;DHT22;62992;52.052;8.550;2023-03-24T19:00:14;10.00;99.90
74513;DHT22;62992;52.052;8.550;2023-03-24T19:02:58;10.00;99.90
74513;DHT22;62992;52.052;8.550;2023-03-24T19:05:43;10.00;99.90
74513;DHT22;62992;52.052;8.550;2023-03-24T19:08:28;10.00;99.90
74513;DHT22;62992;52.052;8.550;2023-03-24T19:11:13;9.90;99.90
74513;DHT22;62992;52.052;8.550;2023-03-24T19:13:58;9.80;99.90
74513;DHT22;62992;52.052;8.550;2023-03-24T19:16:42;9.80;99.90
74513;DHT22;62992;52.052;8.550;2023-03-24T19:19:27;9.80;99.90
74513;DHT22;62992;52.052;8.550;2023-03-24T19:22:14;9.80;99.90
74513;DHT22;62992;52.052;8.550;2023-03-24T19:25:05;9.80;99.90
74513;DHT22;62992;52.052;8.550;2023-03-24T19:27:49;9.70;99.90
74513;DHT22;62992;52.052;8.550;2023-03-24T19:30:33;9.70;99.90
74513;DHT22;62992;52.052;8.550;2023-03-24T19:33:17;9.60;99.90
74513;DHT22;62992;52.052;8.550;2023-03-24T19:36:02;9.60;99.90
74513;DHT22;62992;52.052;8.550;2023-03-24T19:38:46;9.50;99.90
74513;DHT22;62992;52.052;8.550;2023-03-24T19:41:30;9.50;99.90
74513;DHT22;62992;52.052;8.550;2023-03-24T19:44:14;9.40;99.90
74513;DHT22;62992;52.052;8.550;2023-03-24T19:46:59;9.40;99.90
74513;DHT22;62992;52.052;8.550;2023-03-24T19:49:44;9.40;99.90
74513;DHT22;62992;52.052;8.550;2023-03-24T19:52:28;9.30;99.90
74513;DHT22;62992;52.052;8.550;2023-03-24T19:55:12;9.30;99.90
74513;DHT22;62992;52.052;8.550;2023-03-24T19:57:57;9.30;99.90
74513;DHT22;62992;52.052;8.550;2023-03-24T20:00:42;9.30;99.90
74513;DHT22;62992;52.052;8.550;2023-03-24T20:03:27;9.30;99.90
74513;DHT22;62992;52.052;8.550;2023-03-24T20:06:11;9.30;99.90
74513;DHT22;62992;52.052;8.550;2023-03-24T20:08:55;9.20;99.90
74513;DHT22;62992;52.052;8.550;2023-03-24T20:11:39;9.20;99.90
74513;DHT22;62992;52.052;8.550;2023-03-24T20:14:24;9.20;99.90
74513;DHT22;62992;52.052;8.550;2023-03-24T20:17:16;9.10;99.90
74513;DHT22;62992;52.052;8.550;2023-03-24T20:20:00;9.20;99.90
74513;DHT22;62992;52.052;8.550;2023-03-24T20:22:44;9.20;99.90